createdAt,value
2018-11-02T00:02:43.555Z,17.53
2018-11-02T00:06:17.367Z,14.83
2018-11-02T00:09:50.894Z,16.07
2018-11-02T00:13:24.180Z,16.47
2018-11-02T00:16:57.420Z,14.40
2018-11-02T00:20:30.823Z,14.47
2018-11-02T00:24:04.196Z,13.37
2018-11-02T00:27:37.814Z,14.83
2018-11-02T00:31:11.053Z,14.67
2018-11-02T00:34:44.321Z,14.33
2018-11-02T00:38:17.597Z,14.40
2018-11-02T00:41:50.884Z,15.63
2018-11-02T00:45:24.427Z,14.00
2018-11-02T00:48:58.322Z,15.10
2018-11-02T00:52:31.575Z,14.40
2018-11-02T00:56:04.889Z,13.67
2018-11-02T00:59:38.239Z,14.30
2018-11-02T01:03:11.765Z,15.80
2018-11-02T01:06:45.069Z,14.80
2018-11-02T01:10:18.389Z,15.13
2018-11-02T01:13:51.594Z,15.03
2018-11-02T01:17:24.997Z,15.33
2018-11-02T01:20:58.356Z,15.17
2018-11-02T01:24:31.986Z,14.77
2018-11-02T01:28:05.224Z,14.33
2018-11-02T01:31:38.433Z,13.90
2018-11-02T01:35:11.737Z,13.67
2018-11-02T01:38:44.981Z,14.50
2018-11-02T01:42:18.201Z,13.50
2018-11-02T01:45:51.972Z,15.20
2018-11-02T01:49:25.224Z,13.40
2018-11-02T01:52:58.468Z,14.30
2018-11-02T01:56:31.700Z,14.77
2018-11-02T02:00:05.778Z,14.10
2018-11-02T02:03:39.016Z,15.20
2018-11-02T02:07:12.252Z,14.03
2018-11-02T02:10:45.637Z,14.23
2018-11-02T02:14:18.932Z,14.77
2018-11-02T02:17:52.181Z,15.60
2018-11-02T02:21:25.433Z,13.80
2018-11-02T02:24:58.684Z,13.77
2018-11-02T02:28:32.004Z,14.80
2018-11-02T02:32:05.388Z,14.57
2018-11-02T02:35:38.619Z,15.23
2018-11-02T02:39:11.867Z,14.30
2018-11-02T02:42:45.099Z,14.53
2018-11-02T02:46:18.332Z,16.23
2018-11-02T02:49:51.571Z,14.93
2018-11-02T02:53:24.825Z,14.53
2018-11-02T02:56:58.101Z,15.07
2018-11-02T03:00:31.331Z,14.80
2018-11-02T03:04:04.692Z,14.73
2018-11-02T03:07:38.111Z,12.93
2018-11-02T03:11:11.558Z,15.13
2018-11-02T03:14:44.577Z,15.63
2018-11-02T03:18:17.809Z,13.97
2018-11-02T03:21:51.039Z,14.47
2018-11-02T03:25:24.429Z,14.17
2018-11-02T03:28:57.696Z,15.27
2018-11-02T03:32:30.973Z,15.37
2018-11-02T03:36:04.267Z,14.80
2018-11-02T03:39:37.529Z,13.73
2018-11-02T03:43:10.772Z,13.73
2018-11-02T03:46:44.049Z,13.87
2018-11-02T03:50:17.680Z,13.90
2018-11-02T03:53:50.925Z,12.57
2018-11-02T03:57:24.176Z,13.13
2018-11-02T04:00:57.423Z,13.73
2018-11-02T04:04:30.698Z,13.73
2018-11-02T04:08:03.920Z,13.63
2018-11-02T04:11:37.169Z,14.50
2018-11-02T04:15:10.474Z,15.47
2018-11-02T04:18:43.714Z,13.43
2018-11-02T04:22:16.964Z,15.07
2018-11-02T04:25:50.218Z,12.73
2018-11-02T04:29:23.465Z,14.63
2018-11-02T04:32:56.704Z,14.20
2018-11-02T04:36:29.991Z,15.17
2018-11-02T04:40:03.813Z,13.87
2018-11-02T04:43:37.050Z,15.07
2018-11-02T04:47:10.290Z,13.67
2018-11-02T04:50:43.573Z,12.27
2018-11-02T04:54:16.830Z,14.20
2018-11-02T04:57:50.096Z,14.10
2018-11-02T05:01:23.425Z,13.83
2018-11-02T05:04:56.667Z,15.13
2018-11-02T05:08:30.306Z,14.50
2018-11-02T05:12:03.529Z,14.47
2018-11-02T05:15:36.766Z,15.93
2018-11-02T05:19:11.412Z,13.60
2018-11-02T05:22:44.656Z,14.77
2018-11-02T05:26:17.896Z,11.87
2018-11-02T05:29:51.136Z,13.77
2018-11-02T05:33:24.368Z,12.87
2018-11-02T05:36:57.618Z,13.33
2018-11-02T05:40:31.016Z,14.97
2018-11-02T05:44:04.377Z,13.70
2018-11-02T05:47:38.128Z,15.30
2018-11-02T05:51:11.607Z,13.93
2018-11-02T05:54:44.858Z,15.37
2018-11-02T05:58:18.089Z,15.13
2018-11-02T06:01:51.990Z,13.60
2018-11-02T06:05:25.215Z,15.47
2018-11-02T06:08:58.472Z,12.90
2018-11-02T06:12:31.697Z,13.80
2018-11-02T06:16:05.335Z,14.67
2018-11-02T06:19:38.680Z,15.43
2018-11-02T06:23:11.934Z,12.83
2018-11-02T06:26:45.173Z,14.30
2018-11-02T06:30:18.396Z,13.00
2018-11-02T06:33:51.960Z,13.93
2018-11-02T06:37:25.384Z,14.70
2018-11-02T06:40:59.386Z,15.73
2018-11-02T06:44:33.422Z,17.40
2018-11-02T06:48:06.725Z,16.33
2018-11-02T06:51:40.066Z,18.43
2018-11-02T06:55:13.519Z,16.77
2018-11-02T06:58:46.728Z,15.97
2018-11-02T07:02:19.972Z,16.23
2018-11-02T07:05:53.220Z,19.13
2018-11-02T07:09:26.499Z,17.50
2018-11-02T07:12:59.731Z,19.70
2018-11-02T07:16:32.993Z,15.10
2018-11-02T07:20:06.903Z,17.43
2018-11-02T07:23:40.164Z,17.63
2018-11-02T07:27:13.689Z,17.87
2018-11-02T07:30:46.941Z,17.73
2018-11-02T07:34:20.233Z,16.30
2018-11-02T07:37:53.436Z,16.53
2018-11-02T07:41:26.692Z,18.23
2018-11-02T07:44:59.906Z,17.60
2018-11-02T07:48:33.149Z,19.17
2018-11-02T07:52:06.448Z,16.97
2018-11-02T07:55:39.684Z,17.03
2018-11-02T07:59:12.921Z,18.10
2018-11-02T08:02:47.113Z,16.33
2018-11-02T08:06:20.352Z,16.93
2018-11-02T08:09:53.609Z,17.03
2018-11-02T08:13:26.853Z,16.17
2018-11-02T08:17:00.108Z,16.50
2018-11-02T08:20:33.344Z,17.57
2018-11-02T08:24:06.705Z,15.90
2018-11-02T08:27:40.326Z,15.67
2018-11-02T08:31:13.554Z,16.50
2018-11-02T08:34:46.787Z,18.03
2018-11-02T08:38:20.018Z,16.17
2018-11-02T08:41:53.353Z,17.77
2018-11-02T08:45:27.004Z,16.63
2018-11-02T08:49:00.209Z,19.77
2018-11-02T08:52:33.452Z,19.33
2018-11-02T08:56:06.715Z,19.53
2018-11-02T08:59:40.003Z,19.17
2018-11-02T09:03:13.165Z,19.60
2018-11-02T09:06:46.413Z,18.90
2018-11-02T09:10:19.633Z,17.97
2018-11-02T09:13:52.867Z,17.93
2018-11-02T09:17:26.099Z,18.43
2018-11-02T09:20:59.331Z,19.50
2018-11-02T09:24:32.596Z,26.60
2018-11-02T09:28:06.160Z,22.80
2018-11-02T09:31:39.355Z,20.53
2018-11-02T09:35:13.079Z,17.97
2018-11-02T09:38:46.333Z,19.47
2018-11-02T09:42:19.620Z,19.93
2018-11-02T09:45:52.924Z,19.77
2018-11-02T09:49:26.135Z,18.83
2018-11-02T09:52:59.377Z,19.00
2018-11-02T09:56:32.633Z,22.97
2018-11-02T10:00:07.276Z,20.33
2018-11-02T10:03:40.525Z,19.73
2018-11-02T10:07:13.763Z,19.70
2018-11-02T10:10:47.028Z,18.97
2018-11-02T10:14:20.279Z,18.97
2018-11-02T10:17:53.524Z,19.80
2018-11-02T10:21:26.772Z,19.90
2018-11-02T10:25:00.036Z,20.90
2018-11-02T10:28:33.332Z,20.63
2018-11-02T10:32:06.580Z,19.93
2018-11-02T10:35:39.995Z,20.83
2018-11-02T10:39:14.075Z,18.53
2018-11-02T10:42:53.932Z,17.20
2018-11-02T10:46:27.451Z,17.10
2018-11-02T10:50:00.681Z,13.60
2018-11-02T10:53:33.933Z,14.23
2018-11-02T10:57:07.182Z,14.10
2018-11-02T11:00:45.954Z,17.07
2018-11-02T11:04:19.600Z,17.33
2018-11-02T11:07:52.873Z,19.03
2018-11-02T11:11:26.154Z,19.40
2018-11-02T11:14:59.363Z,17.83
2018-11-02T11:18:32.603Z,15.80
2018-11-02T11:22:05.844Z,15.30
2018-11-02T11:25:39.111Z,14.43
2018-11-02T11:29:12.383Z,13.20
2018-11-02T11:32:45.999Z,12.70
2018-11-02T11:36:19.251Z,9.80
2018-11-02T11:39:52.593Z,8.93
2018-11-02T11:43:25.764Z,9.20
2018-11-02T11:46:58.994Z,7.70
2018-11-02T11:50:32.230Z,9.07
2018-11-02T11:54:05.696Z,9.33
2018-11-02T11:57:38.989Z,9.43
2018-11-02T12:01:12.220Z,8.17
2018-11-02T12:04:45.513Z,8.53
2018-11-02T12:08:18.696Z,7.90
2018-11-02T12:11:51.933Z,7.67
2018-11-02T12:15:25.169Z,8.87
2018-11-02T12:18:58.418Z,8.30
2018-11-02T12:22:31.655Z,7.93
2018-11-02T12:26:05.176Z,7.73
2018-11-02T12:29:38.417Z,7.97
2018-11-02T12:33:11.647Z,7.53
2018-11-02T12:36:44.884Z,5.93
2018-11-02T12:40:20.461Z,6.03
2018-11-02T12:43:53.967Z,5.93
2018-11-02T12:47:27.020Z,6.60
2018-11-02T12:51:00.287Z,7.30
2018-11-02T12:54:33.517Z,4.93
2018-11-02T12:58:06.752Z,7.40
2018-11-02T13:01:39.988Z,5.30
2018-11-02T13:05:13.208Z,4.93
2018-11-02T13:08:46.441Z,4.70
2018-11-02T13:12:19.685Z,5.00
2018-11-02T13:15:52.938Z,4.80
2018-11-02T13:19:26.187Z,5.40
2018-11-02T13:22:59.431Z,5.77
2018-11-02T13:26:32.675Z,5.90
2018-11-02T13:30:06.230Z,5.10
2018-11-02T13:33:39.389Z,4.37
2018-11-02T13:37:12.802Z,4.33
2018-11-02T13:40:45.996Z,3.93
2018-11-02T13:44:19.219Z,5.33
2018-11-02T13:47:52.469Z,4.87
2018-11-02T13:51:25.944Z,5.17
2018-11-02T13:54:59.188Z,5.67
2018-11-02T13:58:32.420Z,5.53
2018-11-02T14:02:06.329Z,4.43
2018-11-02T14:05:39.584Z,4.30
2018-11-02T14:09:12.829Z,4.70
2018-11-02T14:12:46.133Z,4.80
2018-11-02T14:16:19.457Z,4.70
2018-11-02T14:19:52.701Z,4.03
2018-11-02T14:23:26.028Z,5.33
2018-11-02T14:26:59.289Z,5.10
2018-11-02T14:30:32.529Z,5.03
2018-11-02T14:34:05.880Z,5.33
2018-11-02T14:37:39.123Z,5.93
2018-11-02T14:41:12.407Z,6.07
2018-11-02T14:44:45.641Z,5.33
2018-11-02T14:48:18.890Z,4.93
2018-11-02T14:51:52.115Z,5.80
2018-11-02T14:55:25.344Z,7.40
2018-11-02T14:58:58.812Z,5.67
2018-11-02T15:02:32.060Z,6.40
2018-11-02T15:06:05.385Z,5.67
2018-11-02T15:09:38.640Z,4.90
2018-11-02T15:13:11.874Z,5.23
2018-11-02T15:16:45.128Z,4.50
2018-11-02T15:20:18.372Z,5.37
2018-11-02T15:23:51.608Z,5.53
2018-11-02T15:27:24.848Z,5.60
2018-11-02T15:30:58.072Z,5.33
2018-11-02T15:34:31.364Z,6.03
2018-11-02T15:38:04.548Z,6.03
2018-11-02T15:41:37.794Z,5.80
2018-11-02T15:45:12.612Z,5.93
2018-11-02T15:48:45.854Z,5.70
2018-11-02T15:52:19.096Z,5.90
2018-11-02T15:55:52.341Z,6.93
2018-11-02T15:59:25.586Z,5.23
2018-11-02T16:02:58.825Z,7.70
2018-11-02T16:06:32.070Z,7.83
2018-11-02T16:10:06.672Z,7.30
2018-11-02T16:13:39.889Z,6.00
2018-11-02T16:17:13.132Z,15.60
2018-11-02T16:20:46.385Z,10.07
2018-11-02T16:24:19.627Z,7.53
2018-11-02T16:27:52.877Z,6.57
2018-11-02T16:31:26.091Z,5.70
2018-11-02T16:34:59.353Z,6.40
2018-11-02T16:38:32.636Z,7.17
2018-11-02T16:42:06.164Z,6.83
2018-11-02T16:45:39.416Z,8.20
2018-11-02T16:49:12.736Z,8.37
2018-11-02T16:52:45.979Z,8.43
2018-11-02T16:56:19.237Z,9.50
2018-11-02T16:59:52.496Z,10.47
2018-11-02T17:03:25.752Z,14.43
2018-11-02T17:06:58.976Z,12.80
2018-11-02T17:10:32.329Z,10.30
2018-11-02T17:14:05.592Z,9.93
2018-11-02T17:17:38.828Z,10.13
2018-11-02T17:21:12.067Z,8.33
2018-11-02T17:24:45.316Z,9.00
2018-11-02T17:28:18.540Z,9.87
2018-11-02T17:31:51.793Z,32.63
2018-11-02T17:35:25.024Z,16.87
2018-11-02T17:38:58.244Z,11.20
2018-11-02T17:42:31.480Z,10.73
2018-11-02T17:46:05.459Z,8.60
2018-11-02T17:49:38.708Z,10.87
2018-11-02T17:53:11.935Z,9.60
2018-11-02T17:56:45.177Z,9.80
2018-11-02T18:00:18.405Z,11.37
2018-11-02T18:03:51.760Z,20.17
2018-11-02T18:07:25.012Z,14.13
2018-11-02T18:10:58.261Z,16.90
2018-11-02T18:14:31.636Z,19.60
2018-11-02T18:18:04.769Z,21.33
2018-11-02T18:21:38.017Z,16.10
2018-11-02T18:25:11.370Z,18.83
2018-11-02T18:28:44.604Z,15.87
2018-11-02T18:32:17.855Z,11.83
2018-11-02T18:35:51.107Z,13.87
2018-11-02T18:39:24.417Z,14.53
2018-11-02T18:42:57.673Z,14.03
2018-11-02T18:46:30.905Z,13.43
2018-11-02T18:50:04.883Z,21.57
2018-11-02T18:53:38.106Z,15.80
2018-11-02T18:57:11.364Z,12.83
2018-11-02T19:00:44.588Z,13.47
2018-11-02T19:04:17.807Z,13.73
2018-11-02T19:07:51.327Z,14.17
2018-11-02T19:11:24.609Z,14.20
2018-11-02T19:14:57.967Z,14.37
2018-11-02T19:18:31.279Z,11.70
2018-11-02T19:22:04.519Z,12.53
2018-11-02T19:25:37.808Z,12.70
2018-11-02T19:29:11.861Z,15.00
2018-11-02T19:32:45.187Z,15.20
2018-11-02T19:36:18.343Z,13.37
2018-11-02T19:39:51.578Z,12.93
2018-11-02T19:43:24.827Z,13.80
2018-11-02T19:46:58.080Z,13.13
2018-11-02T19:50:31.408Z,13.57
2018-11-02T19:54:04.567Z,11.27
2018-11-02T19:57:37.879Z,10.57
2018-11-02T20:01:11.216Z,10.20
2018-11-02T20:04:44.338Z,13.07
2018-11-02T20:08:17.576Z,12.97
2018-11-02T20:11:50.811Z,13.10
2018-11-02T20:15:24.032Z,13.40
2018-11-02T20:18:57.313Z,13.30
2018-11-02T20:22:30.560Z,13.03
2018-11-02T20:26:03.921Z,12.63
2018-11-02T20:29:37.060Z,14.70
2018-11-02T20:33:10.280Z,10.80
2018-11-02T20:36:43.620Z,12.60
2018-11-02T20:40:18.141Z,11.23
2018-11-02T20:43:51.403Z,14.33
2018-11-02T20:47:24.664Z,11.10
2018-11-02T20:50:57.899Z,12.63
2018-11-02T20:54:31.149Z,13.17
2018-11-02T20:58:04.381Z,13.07
2018-11-02T21:01:37.655Z,12.50
2018-11-02T21:05:13.088Z,12.57
2018-11-02T21:08:46.433Z,12.07
2018-11-02T21:12:19.577Z,12.10
2018-11-02T21:15:52.932Z,12.93
2018-11-02T21:19:26.171Z,12.50
2018-11-02T21:22:59.404Z,11.20
2018-11-02T21:26:32.719Z,12.90
2018-11-02T21:30:08.926Z,13.10
2018-11-02T21:33:42.236Z,13.13
2018-11-02T21:37:15.408Z,14.17
2018-11-02T21:40:48.692Z,12.63
2018-11-02T21:44:21.940Z,10.63
2018-11-02T21:47:55.160Z,12.90
2018-11-02T21:51:28.381Z,12.13
2018-11-02T21:55:01.627Z,13.57
2018-11-02T21:58:34.960Z,12.50
2018-11-02T22:02:08.192Z,13.10
2018-11-02T22:05:47.702Z,11.73
2018-11-02T22:09:20.890Z,10.17
2018-11-02T22:12:54.135Z,10.70
2018-11-02T22:16:27.376Z,11.37
2018-11-02T22:20:01.016Z,11.90
2018-11-02T22:23:34.247Z,11.00
2018-11-02T22:27:07.533Z,12.50
2018-11-02T22:30:40.704Z,11.23
2018-11-02T22:34:13.956Z,10.73
2018-11-02T22:37:47.237Z,10.93
2018-11-02T22:41:20.484Z,11.30
2018-11-02T22:44:53.791Z,12.90
2018-11-02T22:48:27.113Z,10.83
2018-11-02T22:52:00.307Z,12.53
2018-11-02T22:55:33.523Z,12.03
2018-11-02T22:59:06.757Z,11.67
2018-11-02T23:02:39.989Z,12.77
2018-11-02T23:06:13.228Z,15.23
2018-11-02T23:09:46.453Z,20.10
2018-11-02T23:13:19.690Z,20.07
2018-11-02T23:16:52.951Z,14.97
2018-11-02T23:20:26.177Z,9.70
2018-11-02T23:23:59.449Z,16.13
2018-11-02T23:27:32.760Z,12.50
2018-11-02T23:31:06.009Z,11.73
2018-11-02T23:34:39.234Z,11.03
2018-11-02T23:38:12.476Z,10.50
2018-11-02T23:41:45.721Z,11.00
2018-11-02T23:45:18.951Z,11.67
2018-11-02T23:48:52.173Z,9.83
2018-11-02T23:52:26.141Z,10.40
2018-11-02T23:55:59.372Z,10.47
2018-11-02T23:59:32.611Z,9.63
